Terminal Aerodrome Forecast
Issued by NWS

Home | Current Version | Previous Version | Text Only | Print | Product List | Glossary On
Versions: 1 2 3 4 5 6 7 8 9 10 11 12 13 14 15
110
FTUS43 KDTX 242320
TAFMBS
TAF
KMBS 242320Z 2500/2524 04015KT P6SM SCT035 BKN045
     FM250200 04010KT 3SM -DZ BR OVC008
     FM250600 05015KT 1SM -RA BR OVC003
     FM251500 06010KT 3SM -DZ BR OVC008=

USA.gov is the U.S. government's official web portal to all federal, state and local government web resources and services.